Charter Quote
Worldwide +1-877-727-2538 Call
Select Language Lang
SAFETY RELIABILITY EXPERIENCE

Private Jet Charter Services - Lianyungang Airport (ZSLG)

Paramount Business Jets offers private jet charter flights and luxury airliner charters to and from Lianyungang Airport.

AIRPORT INFORMATION
ICAOZSLG
LOCATIONLianyungang, China
FACILITY TYPEAIRPORT

At Paramount Business Jets you can hire chartered private jets to and from Lianyungang Airport with as little as 4 hours of notice. All flights booked via Paramount Business Jets are operated by certified direct air carriers that meet and exceed the FAA part 135 and 121 protocol or a foreign equivalent safety authority. Furthermore, Paramount Business Jets subscribes to ARGUS for their third party safety checks of operators, aircraft, and crews prior each and every flight to and from Lianyungang Airport and worldwide.

  • Quote a trip using Lianyungang Airport or call us 24/7 - 365 days a year at +1-877-727-2538.
Questions? Call +1-877-727-2538

METAR Weather Data at Lianyungang Airport, ZSLG

STATIONZSLG
OBSERVEDTue Oct 20, 00:00 UTC
NOWThu Nov 14, 16:22 UTC
AGE35680:22 hr ago
WINDcalm
VISIBILITY1.6 miles
CONDITIONSmist
METARZSLG 200000Z 00000MPS 1000 BR NSC 12/11 Q1017 NOSIG

Call us on +1-877-727-2538 (24 Hours), Check our Pricing, or Get a Quick Quote.

Find Airports Near any Location

Processing
...